Time;durP1;ratioP1;P1;durP2;ratioP2;P2;SDS_P1;SDS_P2;PMS_P1;PMS_P2;Temp;Humidity;BMP_temperature;BMP_pressure;BME280_temperature;BME280_humidity;BME280_pressure;Samples;Min_cycle;Max_cycle;Signal;HPM_P1;HPM_P2
2022/10/28 00:01:38;;;;;;;;;;;14.10;62.70;;;9.76;100.00;96419.31;4993263;28;19909;-48
2022/10/28 00:04:07;;;;;;;;;;;14.10;62.80;;;9.76;100.00;96419.31;5011631;28;19920;-46
2022/10/28 00:06:36;;;;;;;;;;;14.10;62.90;;;9.80;100.00;96419.66;5001098;28;19971;-47
2022/10/28 00:09:03;;;;;;;;;;;14.10;63.00;;;9.82;100.00;96420.22;4990180;28;19909;-52
2022/10/28 00:11:41;;;;;;;;;;;14.10;63.00;;;9.78;100.00;96422.56;5011322;28;19923;-50
2022/10/28 00:14:08;;;;;;;;;;;14.10;63.00;;;9.77;100.00;96420.13;5009025;28;19917;-47
2022/10/28 00:16:36;;;;;;;;;;;14.10;63.00;;;9.75;100.00;96423.03;4997026;28;20003;-47
2022/10/28 00:19:05;;;;;;;;;;;14.10;63.00;;;9.74;100.00;96432.03;5012052;28;19913;-53
2022/10/28 00:21:35;;;;;;;;;;;14.10;62.90;;;9.75;100.00;96432.88;5013800;28;20310;-49
2022/10/28 00:24:06;;;;;;;;;;;14.10;62.90;;;9.76;100.00;96440.59;5013621;28;19991;-48
2022/10/28 00:26:36;;;;;;;;;;;14.10;62.90;;;9.74;100.00;96442.69;5028891;28;20354;-46
2022/10/28 00:29:06;;;;;;;;;;;14.10;62.90;;;9.72;100.00;96460.75;5014081;28;20333;-46
2022/10/28 00:31:37;;;;;;;;;;;14.10;62.90;;;9.70;100.00;96445.00;4995447;28;19912;-46
2022/10/28 00:34:16;;;;;;;;;;;14.10;62.90;;;9.68;100.00;96438.31;5013460;28;20020;-46
2022/10/28 00:36:45;;;;;;;;;;;14.00;62.90;;;9.71;100.00;96440.50;5014124;28;19958;-47
2022/10/28 00:39:34;;;;;;;;;;;14.10;63.10;;;9.75;100.00;96440.84;5029203;28;19909;-50
2022/10/28 00:42:03;;;;;;;;;;;14.10;63.20;;;9.81;100.00;96447.84;4998807;28;20406;-50
2022/10/28 00:44:56;;;;;;;;;;;14.10;63.20;;;9.79;100.00;96447.31;5017550;28;20351;-48
2022/10/28 00:47:56;;;;;;;;;;;14.10;63.20;;;9.80;100.00;96446.25;5010393;28;19912;-49
2022/10/28 00:50:52;;;;;;;;;;;14.10;63.20;;;9.75;100.00;96436.34;5011774;28;19916;-46
2022/10/28 00:53:25;;;;;;;;;;;14.10;63.20;;;9.77;100.00;96434.22;5013571;28;20429;-47
2022/10/28 00:55:51;;;;;;;;;;;14.10;63.20;;;9.72;100.00;96434.16;5011877;28;19928;-47
2022/10/28 00:58:25;;;;;;;;;;;14.10;63.20;;;9.70;100.00;96434.38;5007296;28;20322;-47
2022/10/28 01:00:51;;;;;;;;;;;14.00;63.20;;;9.68;100.00;96438.31;4994414;28;19909;-48
2022/10/28 01:03:17;;;;;;;;;;;14.00;63.20;;;9.69;100.00;96437.28;4992013;28;19913;-53
2022/10/28 01:05:48;;;;;;;;;;;14.00;63.30;;;9.69;100.00;96432.78;5010275;28;20364;-48
2022/10/28 01:08:14;;;;;;;;;;;14.00;63.40;;;9.71;100.00;96438.66;5002885;28;19909;-49
2022/10/28 01:11:26;;;;;;;;;;;14.00;63.50;;;9.74;100.00;96440.03;4990530;28;20004;-51
2022/10/28 01:14:21;;;;;;;;;;;14.10;63.60;;;9.71;100.00;96445.81;5029705;28;19920;-50
2022/10/28 01:17:02;;;;;;;;;;;14.00;63.50;;;9.66;100.00;96435.09;4993763;28;19980;-46
2022/10/28 01:20:08;;;;;;;;;;;14.00;63.60;;;9.65;100.00;96433.47;5010076;28;19909;-52
2022/10/28 01:23:07;;;;;;;;;;;14.00;63.60;;;9.66;100.00;96437.75;5010533;28;19920;-48
2022/10/28 01:25:55;;;;;;;;;;;14.00;63.70;;;9.70;100.00;96426.38;4992586;28;19915;-49
2022/10/28 01:29:05;;;;;;;;;;;14.00;63.80;;;9.72;100.00;96426.97;5001985;28;19909;-49
2022/10/28 01:31:42;;;;;;;;;;;14.00;64.70;;;9.71;100.00;96432.50;4991086;28;20439;-53
2022/10/28 01:34:33;;;;;;;;;;;13.90;63.80;;;9.67;100.00;96432.19;5010475;28;19968;-50
2022/10/28 01:37:18;;;;;;;;;;;13.90;63.80;;;9.64;100.00;96434.53;5009747;28;20004;-49
2022/10/28 01:39:54;;;;;;;;;;;13.90;63.80;;;9.61;100.00;96427.00;5005019;28;19917;-52
2022/10/28 01:42:50;;;;;;;;;;;13.90;63.80;;;9.47;100.00;96421.19;5012660;28;20450;-50
2022/10/28 01:45:35;;;;;;;;;;;13.90;63.80;;;9.40;100.00;96421.31;5008430;28;19916;-49
2022/10/28 01:48:44;;;;;;;;;;;13.80;63.70;;;9.36;100.00;96414.03;4993704;28;19909;-48
2022/10/28 01:51:33;;;;;;;;;;;13.80;63.80;;;9.31;100.00;96401.47;5012463;28;19919;-49
2022/10/28 01:54:08;;;;;;;;;;;13.70;63.80;;;9.30;100.00;96405.16;5030006;28;19908;-50
2022/10/28 01:56:41;;;;;;;;;;;13.70;63.80;;;9.28;100.00;96412.56;4993951;28;19962;-48
2022/10/28 01:59:18;;;;;;;;;;;13.70;63.90;;;9.25;100.00;96413.84;5013393;28;19970;-54
2022/10/28 02:01:46;;;;;;;;;;;13.60;64.00;;;9.23;100.00;96413.25;4999024;28;19909;-50
2022/10/28 02:04:12;;;;;;;;;;;13.60;64.00;;;9.21;100.00;96410.06;5001599;28;19949;-49
2022/10/28 02:06:42;;;;;;;;;;;13.60;64.10;;;9.19;100.00;96409.47;4996189;28;20023;-48
2022/10/28 02:09:50;;;;;;;;;;;13.60;64.10;;;9.17;100.00;96408.88;4998461;28;20268;-48
2022/10/28 02:12:32;;;;;;;;;;;13.60;64.20;;;9.14;100.00;96419.19;5033435;28;19927;-49
2022/10/28 02:15:46;;;;;;;;;;;13.50;64.20;;;9.10;100.00;96423.34;4995578;28;19921;-50
2022/10/28 02:18:32;;;;;;;;;;;13.50;64.30;;;9.13;100.00;96415.72;5015469;28;19955;-51
2022/10/28 02:21:13;;;;;;;;;;;13.50;64.40;;;9.15;100.00;96413.66;5010937;28;19963;-52
2022/10/28 02:24:00;;;;;;;;;;;13.50;64.40;;;9.11;100.00;96412.47;4998292;28;19952;-49
2022/10/28 02:27:12;;;;;;;;;;;13.50;64.40;;;9.13;100.00;96405.09;4997491;28;19913;-50
2022/10/28 02:29:56;;;;;;;;;;;13.50;64.40;;;9.01;100.00;96410.41;4970470;28;19913;-49
2022/10/28 02:32:28;;;;;;;;;;;13.40;64.30;;;9.01;100.00;96412.28;4995878;28;20148;-48
2022/10/28 02:35:00;;;;;;;;;;;13.40;64.40;;;8.96;100.00;96405.03;4996454;28;20260;-50
2022/10/28 02:37:37;;;;;;;;;;;13.40;64.40;;;8.94;100.00;96412.41;4980857;28;20399;-54
2022/10/28 02:40:25;;;;;;;;;;;13.30;64.40;;;8.91;100.00;96406.75;5015496;28;20494;-48
2022/10/28 02:42:59;;;;;;;;;;;13.30;64.40;;;8.88;100.00;96413.34;5015872;28;20280;-49
2022/10/28 02:45:42;;;;;;;;;;;13.30;64.40;;;8.81;100.00;96407.34;5012560;28;19962;-49
2022/10/28 02:48:36;;;;;;;;;;;13.30;64.40;;;8.67;100.00;96408.63;5008230;28;20275;-49
2022/10/28 02:51:18;;;;;;;;;;;13.20;64.40;;;8.62;100.00;96409.34;5010387;28;19913;-53
2022/10/28 02:54:23;;;;;;;;;;;13.10;64.40;;;8.63;100.00;96395.00;5021920;28;20009;-50
2022/10/28 02:57:11;;;;;;;;;;;13.10;64.50;;;8.63;100.00;96402.97;4993477;28;19913;-52
2022/10/28 03:00:04;;;;;;;;;;;13.00;64.60;;;8.60;100.00;96406.09;4999502;28;19959;-48
2022/10/28 03:02:30;;;;;;;;;;;13.00;64.70;;;8.59;100.00;96415.09;5013753;28;20383;-49
2022/10/28 03:04:56;;;;;;;;;;;13.00;64.80;;;8.63;100.00;96421.56;5015307;28;20218;-49
2022/10/28 03:07:22;;;;;;;;;;;13.00;64.90;;;8.65;100.00;96416.84;5011859;23;20040;-52
2022/10/28 03:09:51;;;;;;;;;;;13.10;65.00;;;8.66;100.00;96420.28;4967371;28;20408;-54
2022/10/28 03:12:17;;;;;;;;;;;13.10;65.00;;;8.63;100.00;96410.94;4955491;28;19953;-51
2022/10/28 03:14:52;;;;;;;;;;;13.10;64.90;;;8.65;100.00;96411.53;4960631;28;20407;-50
2022/10/28 03:17:20;;;;;;;;;;;13.10;64.90;;;8.63;100.00;96416.25;4981536;28;20300;-55
2022/10/28 03:19:46;;;;;;;;;;;13.20;64.90;;;8.64;100.00;96409.09;4958153;28;20008;-51
2022/10/28 03:22:15;;;;;;;;;;;13.20;64.90;;;8.63;100.00;96405.63;4959281;28;20005;-51
2022/10/28 03:24:43;;;;;;;;;;;13.20;64.90;;;8.67;100.00;96404.09;4955655;28;20340;-54
2022/10/28 03:27:09;;;;;;;;;;;13.10;64.80;;;8.68;100.00;96405.75;4955125;28;20440;-49
2022/10/28 03:29:35;;;;;;;;;;;13.10;64.90;;;8.67;100.00;96409.41;4936861;28;20009;-51
2022/10/28 03:32:01;;;;;;;;;;;13.10;64.90;;;8.70;100.00;96405.50;4961095;28;19917;-49
2022/10/28 03:34:35;;;;;;;;;;;13.10;64.90;;;8.74;100.00;96406.63;4972095;28;20334;-51
2022/10/28 03:37:01;;;;;;;;;;;13.20;65.10;;;8.77;100.00;96407.00;4972780;28;19910;-53
2022/10/28 03:39:27;;;;;;;;;;;13.20;65.10;;;8.77;100.00;96403.53;4952648;28;19910;-53
2022/10/28 03:41:55;;;;;;;;;;;13.20;65.10;;;8.76;100.00;96408.03;4966752;28;19957;-47
2022/10/28 03:44:21;;;;;;;;;;;13.20;65.10;;;8.78;100.00;96408.63;4962390;28;19913;-49
2022/10/28 03:46:46;;;;;;;;;;;13.20;65.20;;;8.80;100.00;96406.50;4972970;28;19910;-47
2022/10/28 03:49:18;;;;;;;;;;;13.20;65.20;;;8.84;100.00;96408.72;4970798;28;19951;-52
2022/10/28 03:51:50;;;;;;;;;;;13.20;65.20;;;8.89;100.00;96414.94;4955836;28;19968;-49
2022/10/28 03:54:15;;;;;;;;;;;13.20;65.20;;;8.92;100.00;96408.38;4971907;28;20036;-56
2022/10/28 03:56:44;;;;;;;;;;;13.20;65.30;;;8.93;100.00;96415.28;4970220;28;19996;-49
2022/10/28 03:59:10;;;;;;;;;;;13.30;65.40;;;8.94;100.00;96419.56;4971910;28;19925;-53
2022/10/28 04:01:42;;;;;;;;;;;13.30;65.40;;;8.93;100.00;96409.97;4972028;28;19996;-48
2022/10/28 04:04:17;;;;;;;;;;;13.30;65.40;;;8.96;100.00;96404.19;4971807;28;20328;-47
2022/10/28 04:06:45;;;;;;;;;;;13.30;65.40;;;8.98;100.00;96397.59;4971232;28;19914;-50
2022/10/28 04:09:14;;;;;;;;;;;13.30;65.40;;;9.00;100.00;96402.69;4970849;28;20562;-51
2022/10/28 04:11:42;;;;;;;;;;;13.40;65.50;;;9.02;100.00;96401.44;4971428;28;19922;-48
2022/10/28 04:14:08;;;;;;;;;;;13.40;65.50;;;9.09;100.00;96408.44;4970768;28;19956;-53
2022/10/28 04:16:34;;;;;;;;;;;13.40;65.50;;;9.13;100.00;96415.72;4968701;28;19981;-50
2022/10/28 04:19:00;;;;;;;;;;;13.40;65.50;;;9.15;100.00;96411.00;4953676;28;19918;-48
2022/10/28 04:21:25;;;;;;;;;;;13.40;65.50;;;9.14;100.00;96416.53;4953423;28;20033;-53
2022/10/28 04:23:53;;;;;;;;;;;13.40;65.50;;;9.10;100.00;96408.22;4959277;28;19968;-50
2022/10/28 04:26:22;;;;;;;;;;;13.40;65.40;;;9.07;100.00;96400.72;4960564;28;20423;-50
2022/10/28 04:28:57;;;;;;;;;;;13.50;65.50;;;9.03;100.00;96395.06;4960260;28;19918;-51
2022/10/28 04:31:23;;;;;;;;;;;13.40;65.40;;;9.08;100.00;96404.16;4961790;28;19922;-48
2022/10/28 04:33:49;;;;;;;;;;;13.40;65.50;;;9.10;100.00;96405.56;4971473;28;19910;-53
2022/10/28 04:36:14;;;;;;;;;;;13.40;65.60;;;9.12;100.00;96405.31;4962497;28;19918;-58
2022/10/28 04:38:40;;;;;;;;;;;13.40;65.60;;;9.14;100.00;96406.69;4968082;28;19909;-48
2022/10/28 04:41:07;;;;;;;;;;;13.50;65.80;;;9.15;100.00;96410.16;4966104;28;19917;-50
2022/10/28 04:43:36;;;;;;;;;;;13.40;65.70;;;9.15;100.00;96410.16;4949173;28;19956;-53
2022/10/28 04:46:04;;;;;;;;;;;13.50;65.80;;;9.15;100.00;96410.16;4957959;28;20377;-50
2022/10/28 04:48:33;;;;;;;;;;;13.50;65.80;;;9.18;100.00;96413.19;4962846;28;19994;-48
2022/10/28 04:51:03;;;;;;;;;;;13.50;65.80;;;9.21;100.00;96403.91;4959366;28;19925;-48
2022/10/28 04:53:28;;;;;;;;;;;13.50;65.80;;;9.19;100.00;96411.31;4939635;28;20423;-53
2022/10/28 04:55:58;;;;;;;;;;;13.50;65.80;;;9.17;100.00;96408.88;4958136;28;19952;-49
2022/10/28 04:58:25;;;;;;;;;;;13.50;65.80;;;9.15;100.00;96403.00;4962827;28;19916;-49
2022/10/28 05:00:51;;;;;;;;;;;13.50;65.80;;;9.14;100.00;96401.38;4954195;28;20395;-58
2022/10/28 05:03:17;;;;;;;;;;;13.50;65.80;;;9.12;100.00;96408.78;4963683;28;19996;-53
2022/10/28 05:05:42;;;;;;;;;;;13.50;65.90;;;9.11;100.00;96407.16;4951333;28;19936;-51
2022/10/28 05:08:11;;;;;;;;;;;13.40;65.90;;;9.09;100.00;96395.16;4939607;28;19926;-50
2022/10/28 05:10:37;;;;;;;;;;;13.40;65.80;;;9.04;100.00;96399.31;4950249;28;19957;-50
2022/10/28 05:13:02;;;;;;;;;;;13.40;65.90;;;9.06;100.00;96391.13;4942543;28;19948;-55
2022/10/28 05:15:30;;;;;;;;;;;13.40;66.00;;;9.06;100.00;96400.94;4939026;28;19929;-55
2022/10/28 05:17:58;;;;;;;;;;;13.40;66.10;;;9.05;100.00;96394.81;4939041;28;19922;-56
2022/10/28 05:20:24;;;;;;;;;;;13.40;66.10;;;9.00;100.00;96387.56;4949971;28;19918;-51
2022/10/28 05:22:53;;;;;;;;;;;13.40;66.00;;;8.99;100.00;96393.09;4950158;28;19914;-51
2022/10/28 05:25:27;;;;;;;;;;;13.40;66.10;;;8.98;100.00;96388.81;4948292;28;20005;-52
2022/10/28 05:27:58;;;;;;;;;;;13.30;66.10;;;8.99;100.00;96387.78;4949837;28;20361;-48
2022/10/28 05:30:30;;;;;;;;;;;13.30;66.10;;;8.97;100.00;96390.69;4953419;28;19910;-50
2022/10/28 05:33:05;;;;;;;;;;;13.30;66.20;;;8.98;100.00;96397.59;4953679;28;19983;-52
2022/10/28 05:35:39;;;;;;;;;;;13.30;66.20;;;8.98;100.00;96392.28;4945802;28;19955;-50
2022/10/28 05:38:05;;;;;;;;;;;13.30;66.30;;;8.98;100.00;96394.16;4950515;28;20361;-47
2022/10/28 05:40:37;;;;;;;;;;;13.30;66.40;;;8.96;100.00;96405.03;4948151;28;19910;-53
2022/10/28 05:43:03;;;;;;;;;;;13.30;66.30;;;8.95;100.00;96394.59;4946205;28;19921;-50
2022/10/28 05:45:29;;;;;;;;;;;13.30;66.30;;;8.93;100.00;96396.69;4953648;28;19945;-50
2022/10/28 05:47:57;;;;;;;;;;;13.30;66.30;;;8.91;100.00;96398.78;4954563;28;19918;-50
2022/10/28 05:50:23;;;;;;;;;;;13.30;66.40;;;8.89;100.00;96401.66;4950743;28;20029;-49
2022/10/28 05:52:52;;;;;;;;;;;13.30;66.40;;;8.95;100.00;96410.56;4951558;28;20440;-54
2022/10/28 05:55:21;;;;;;;;;;;13.30;66.50;;;9.00;100.00;96411.47;4944917;28;20372;-52
2022/10/28 05:57:51;;;;;;;;;;;13.40;66.60;;;8.98;100.00;96413.53;4954332;28;20068;-49
2022/10/28 06:00:20;;;;;;;;;;;13.40;66.60;;;8.96;100.00;96423.63;4956050;28;19917;-52
2022/10/28 06:02:49;;;;;;;;;;;13.40;66.50;;;8.92;100.00;96417.13;4916533;29;19921;-49
2022/10/28 06:05:15;;;;;;;;;;;13.40;66.50;;;8.90;100.00;96415.75;4951826;28;19918;-51
2022/10/28 06:07:42;;;;;;;;;;;13.40;66.50;;;8.89;100.00;96411.47;4937046;28;19945;-49
2022/10/28 06:10:10;;;;;;;;;;;13.40;66.50;;;8.90;100.00;96410.44;4951316;28;20004;-52
2022/10/28 06:12:37;;;;;;;;;;;13.40;66.50;;;8.93;100.00;96402.00;4954209;28;19937;-49
2022/10/28 06:15:03;;;;;;;;;;;13.40;66.60;;;8.97;100.00;96397.84;4954601;28;19913;-51
2022/10/28 06:17:30;;;;;;;;;;;13.40;66.70;;;9.01;100.00;96401.66;4935093;29;19914;-52
2022/10/28 06:19:55;;;;;;;;;;;13.50;66.80;;;9.07;100.00;96405.22;4948256;28;19910;-56
2022/10/28 06:22:22;;;;;;;;;;;13.50;66.80;;;9.12;100.00;96403.47;4936562;28;19918;-53
2022/10/28 06:24:47;;;;;;;;;;;13.60;66.80;;;9.14;100.00;96403.22;4934941;29;19917;-59
2022/10/28 06:27:13;;;;;;;;;;;13.70;66.80;;;9.24;100.00;96406.09;4944343;28;20285;-58
2022/10/28 06:29:42;;;;;;;;;;;13.70;66.80;;;9.34;100.00;96416.94;4939086;28;19941;-55
2022/10/28 06:32:10;;;;;;;;;;;13.70;66.80;;;9.41;100.00;96424.78;4950233;28;19918;-56
2022/10/28 06:34:39;;;;;;;;;;;13.80;66.90;;;9.48;100.00;96436.09;4946858;28;19921;-56
2022/10/28 06:37:06;;;;;;;;;;;13.90;66.90;;;9.54;100.00;96442.31;4940677;28;20362;-54
2022/10/28 06:39:32;;;;;;;;;;;14.00;66.90;;;9.55;100.00;96444.72;4954567;28;19920;-58
2022/10/28 06:41:58;;;;;;;;;;;14.00;66.80;;;9.61;100.00;96448.28;4955341;28;20008;-54
2022/10/28 06:44:24;;;;;;;;;;;14.10;66.80;;;9.65;100.00;96452.91;4968733;28;20024;-56
2022/10/28 06:46:50;;;;;;;;;;;14.20;66.70;;;9.71;100.00;96445.81;4953224;28;20016;-56
2022/10/28 06:49:15;;;;;;;;;;;14.30;66.60;;;9.78;100.00;96456.31;4954211;28;19917;-56
2022/10/28 06:51:41;;;;;;;;;;;14.40;66.60;;;9.82;100.00;96447.63;4935568;29;19918;-58
2022/10/28 06:54:10;;;;;;;;;;;14.50;66.60;;;9.93;100.00;96443.28;4936151;29;19914;-58
2022/10/28 06:56:39;;;;;;;;;;;14.50;66.50;;;10.03;100.00;96437.34;4938438;28;19910;-57
2022/10/28 06:59:04;;;;;;;;;;;14.60;66.40;;;10.07;100.00;96433.97;4934637;29;19910;-53
2022/10/28 07:01:33;;;;;;;;;;;14.70;66.50;;;10.13;100.00;96425.03;4937634;28;19921;-56
2022/10/28 07:03:59;;;;;;;;;;;14.80;66.50;;;10.16;100.00;96429.06;4954661;28;19957;-55
2022/10/28 07:06:24;;;;;;;;;;;14.80;66.40;;;10.26;100.00;96423.94;4953216;28;20492;-54
2022/10/28 07:08:50;;;;;;;;;;;14.90;66.30;;;10.41;100.00;96407.41;4969245;28;20020;-57
2022/10/28 07:11:17;;;;;;;;;;;15.00;66.40;;;10.56;100.00;96415.63;4953351;28;20016;-56
2022/10/28 07:13:46;;;;;;;;;;;15.10;66.40;;;10.73;100.00;96433.44;4944464;28;19910;-51
2022/10/28 07:16:11;;;;;;;;;;;15.20;66.40;;;10.80;100.00;96442.88;4959198;28;20380;-55
2022/10/28 07:18:37;;;;;;;;;;;15.40;66.50;;;10.91;100.00;96417.19;4972098;28;19909;-55
2022/10/28 07:21:17;;;;;;;;;;;15.50;66.30;;;11.05;100.00;96439.75;4968900;28;20012;-57
2022/10/28 07:23:45;;;;;;;;;;;15.70;66.20;;;11.19;100.00;96450.88;4973887;28;19910;-55
2022/10/28 07:26:23;;;;;;;;;;;15.80;66.10;;;11.34;100.00;96444.91;4967852;28;19920;-59
2022/10/28 07:28:54;;;;;;;;;;;16.00;66.00;;;11.46;100.00;96431.44;4973802;28;19910;-57
2022/10/28 07:31:20;;;;;;;;;;;16.10;65.80;;;11.59;100.00;96447.06;4972248;28;19913;-55
2022/10/28 07:33:52;;;;;;;;;;;16.30;65.70;;;11.71;98.41;96458.41;4973939;28;19975;-59
2022/10/28 07:36:24;;;;;;;;;;;16.40;65.50;;;11.87;99.33;96455.94;4972001;28;19932;-59
2022/10/28 07:38:56;;;;;;;;;;;16.60;65.50;;;12.00;99.69;96461.72;4972503;28;20376;-59
2022/10/28 07:41:21;;;;;;;;;;;16.80;65.30;;;12.11;97.97;96462.59;4973441;28;20300;-56
2022/10/28 07:43:51;;;;;;;;;;;16.90;65.10;;;12.22;97.74;96458.16;4970950;28;19914;-57
2022/10/28 07:46:20;;;;;;;;;;;17.00;65.00;;;12.32;95.87;96462.81;4956286;28;20432;-55
2022/10/28 07:48:49;;;;;;;;;;;17.20;64.90;;;12.41;94.58;96451.41;4956123;28;19914;-58
2022/10/28 07:51:15;;;;;;;;;;;17.30;64.60;;;12.54;93.70;96458.19;4937434;28;19914;-56
2022/10/28 07:53:41;;;;;;;;;;;17.50;64.40;;;12.71;93.21;96464.19;4936873;28;20428;-58
2022/10/28 07:56:14;;;;;;;;;;;17.70;64.30;;;12.87;93.73;96454.38;4969569;28;19916;-58
2022/10/28 07:58:42;;;;;;;;;;;17.80;64.00;;;13.02;92.10;96468.94;4972412;28;20652;-59
2022/10/28 08:01:11;;;;;;;;;;;18.00;63.90;;;13.13;91.12;96463.41;4971504;28;19917;-58
2022/10/28 08:03:49;;;;;;;;;;;18.10;63.60;;;13.25;90.21;96460.53;4936677;28;20004;-58
2022/10/28 08:06:20;;;;;;;;;;;18.30;63.50;;;13.33;86.80;96464.59;4952263;28;19910;-57
2022/10/28 08:08:54;;;;;;;;;;;18.40;63.30;;;13.43;84.54;96470.00;4946907;28;19929;-60
2022/10/28 08:11:22;;;;;;;;;;;18.50;63.00;;;13.54;84.78;96468.97;4953518;28;20401;-59
2022/10/28 08:13:55;;;;;;;;;;;18.70;62.90;;;13.61;86.61;96456.16;4937810;28;19918;-59
2022/10/28 08:16:21;;;;;;;;;;;18.80;62.60;;;13.68;86.13;96466.59;4953345;28;19909;-58
2022/10/28 08:18:47;;;;;;;;;;;18.90;63.10;;;13.74;86.00;96462.09;4936408;28;20004;-58
2022/10/28 08:21:14;;;;;;;;;;;19.00;62.10;;;13.86;86.44;96462.66;4951187;28;20012;-59
2022/10/28 08:23:45;;;;;;;;;;;19.10;62.00;;;13.98;84.00;96467.78;4956097;28;20381;-58
2022/10/28 08:26:13;;;;;;;;;;;19.20;61.70;;;14.11;84.80;96469.94;4959106;28;19913;-56
2022/10/28 08:28:39;;;;;;;;;;;19.30;61.60;;;14.27;83.98;96471.56;4971457;28;19920;-57
2022/10/28 08:31:08;;;;;;;;;;;19.50;61.50;;;14.34;83.68;96474.78;4971152;28;19913;-55
2022/10/28 08:33:36;;;;;;;;;;;19.70;61.30;;;14.52;83.36;96470.03;4972016;28;20001;-56
2022/10/28 08:36:12;;;;;;;;;;;19.80;61.10;;;14.67;79.47;96480.75;4972072;28;19952;-59
2022/10/28 08:38:45;;;;;;;;;;;20.00;60.80;;;14.77;77.34;96478.06;4969970;28;20008;-57
2022/10/28 08:42:06;;;;;;;;;;;20.10;60.50;;;14.99;81.59;96479.66;4972415;28;19967;-55
2022/10/28 08:44:32;;;;;;;;;;;20.30;60.20;;;15.07;78.83;96476.41;4971253;28;19920;-60
2022/10/28 08:47:10;;;;;;;;;;;20.40;60.10;;;15.19;76.39;96471.56;4971911;28;20242;-57
2022/10/28 08:49:41;;;;;;;;;;;20.60;59.90;;;15.36;76.06;96483.88;4971174;28;19910;-59
2022/10/28 08:52:27;;;;;;;;;;;20.70;59.60;;;15.55;76.32;96479.53;4928917;28;20401;-59
2022/10/28 08:55:12;;;;;;;;;;;20.90;59.40;;;15.73;75.90;96483.47;4935840;28;19911;-58
2022/10/28 08:58:20;;;;;;;;;;;21.00;59.30;;;15.88;73.61;96486.09;4943249;28;19963;-58
2022/10/28 09:00:56;;;;;;;;;;;21.20;59.00;;;16.03;71.46;96489.81;4933276;28;19919;-56
2022/10/28 09:03:27;;;;;;;;;;;21.40;58.80;;;16.20;71.01;96482.16;4953816;28;19914;-58
2022/10/28 09:06:05;;;;;;;;;;;21.50;58.60;;;16.38;71.81;96486.88;4970832;28;19972;-58
2022/10/28 09:08:54;;;;;;;;;;;21.70;58.40;;;16.56;70.53;96487.31;5007600;22;19921;-52
2022/10/28 09:11:54;;;;;;;;;;;21.80;58.20;;;16.76;68.87;96478.31;4982157;28;20284;-52
2022/10/28 09:15:08;;;;;;;;;;;22.00;58.10;;;16.95;68.47;96481.91;4946978;28;20252;-50
2022/10/28 09:17:55;;;;;;;;;;;22.20;57.80;;;17.11;63.99;96478.00;4967925;28;20360;-54
2022/10/28 09:20:32;;;;;;;;;;;22.30;57.60;;;17.18;64.12;96474.97;4966716;28;19910;-49
2022/10/28 09:23:29;;;;;;;;;;;22.40;57.40;;;17.24;66.60;96479.22;4952283;29;19917;-50
2022/10/28 09:26:58;;;;;;;;;;;22.50;57.20;;;17.51;67.31;96486.72;4956729;28;19910;-49
2022/10/28 09:29:57;;;;;;;;;;;22.80;56.90;;;17.71;64.15;96493.78;4961040;28;19956;-48
2022/10/28 09:32:35;;;;;;;;;;;23.20;56.70;;;17.76;65.40;96490.22;4952540;28;19925;-53
2022/10/28 09:35:26;;;;;;;;;;;23.30;56.50;;;17.99;66.04;96491.31;4952444;29;19985;-52
2022/10/28 09:38:24;;;;;;;;;;;23.60;56.10;;;18.55;64.73;96492.41;4939895;28;19916;-50
2022/10/28 09:41:23;;;;;;;;;;;24.20;55.70;;;19.05;61.14;96480.00;4952296;29;20029;-52
2022/10/28 09:44:59;;;;;;;;;;;24.90;55.30;;;19.60;59.73;96493.59;4940954;28;20268;-49
2022/10/28 09:47:36;;;;;;;;;;;25.60;54.80;;;19.83;59.00;96499.91;4911436;29;19918;-50
2022/10/28 09:50:16;;;;;;;;;;;26.30;54.30;;;20.23;57.03;96492.03;4946035;29;19957;-48
2022/10/28 09:53:22;;;;;;;;;;;26.70;53.70;;;20.73;54.57;96486.59;4946823;29;19944;-53
2022/10/28 09:55:49;;;;;;;;;;;27.30;53.40;;;21.11;55.02;96497.03;4954613;28;19914;-51
2022/10/28 09:58:17;;;;;;;;;;;27.80;53.00;;;21.20;53.87;96495.19;4950988;28;20371;-51
2022/10/28 10:00:44;;;;;;;;;;;28.10;52.50;;;21.32;53.44;96494.59;4935033;29;20427;-54
2022/10/28 10:03:09;;;;;;;;;;;28.50;52.10;;;21.38;54.19;96493.41;4949421;28;19918;-53
2022/10/28 10:05:47;;;;;;;;;;;28.80;51.60;;;21.57;51.96;96498.56;4953630;28;19960;-48
2022/10/28 10:08:19;;;;;;;;;;;28.90;51.20;;;21.68;51.36;96502.59;4937727;28;19925;-54
2022/10/28 10:11:02;;;;;;;;;;;28.90;50.90;;;21.78;53.51;96501.53;4912559;29;19937;-50
2022/10/28 10:13:38;;;;;;;;;;;29.10;50.50;;;22.16;51.79;96506.44;4938678;29;19918;-48
2022/10/28 10:16:46;;;;;;;;;;;29.30;50.50;;;22.54;50.04;96505.84;4925086;29;20374;-54
2022/10/28 10:19:12;;;;;;;;;;;29.60;50.00;;;22.84;50.25;96507.56;4920035;29;19911;-52
2022/10/28 10:21:49;;;;;;;;;;;30.00;49.80;;;22.79;49.85;96502.31;4937040;28;19914;-55
2022/10/28 10:24:30;;;;;;;;;;;30.30;49.40;;;22.94;48.54;96506.50;4915972;29;20293;-58
2022/10/28 10:27:11;;;;;;;;;;;30.50;49.00;;;22.99;48.43;96505.53;4926190;29;19918;-55
2022/10/28 10:29:46;;;;;;;;;;;30.80;48.70;;;23.04;48.61;96494.50;4916221;29;19917;-57
2022/10/28 10:32:31;;;;;;;;;;;31.10;48.30;;;23.19;47.99;96496.72;4923283;28;19977;-57
2022/10/28 10:35:25;;;;;;;;;;;31.30;48.00;;;23.55;47.59;96501.69;4940719;28;20353;-57
2022/10/28 10:37:54;;;;;;;;;;;31.40;47.80;;;23.35;46.47;96502.41;4928674;28;20424;-58
2022/10/28 10:40:26;;;;;;;;;;;31.40;47.60;;;23.38;46.58;96501.78;4925093;29;19965;-57
2022/10/28 10:42:53;;;;;;;;;;;31.50;47.30;;;23.74;45.69;96495.09;4936429;28;20274;-56
2022/10/28 10:45:26;;;;;;;;;;;31.70;47.00;;;23.96;45.43;96481.22;4938245;28;19911;-55
2022/10/28 10:48:13;;;;;;;;;;;32.00;46.70;;;24.34;46.61;96477.59;4932236;28;19910;-58
2022/10/28 10:50:46;;;;;;;;;;;32.30;46.40;;;24.69;44.57;96482.81;4926251;29;19910;-56
2022/10/28 10:53:24;;;;;;;;;;;32.70;46.10;;;25.03;43.98;96470.00;4930907;28;20309;-57
2022/10/28 10:56:00;;;;;;;;;;;33.00;45.70;;;25.24;45.83;96470.78;4941075;28;19953;-57
2022/10/28 10:58:34;;;;;;;;;;;33.10;45.40;;;25.37;43.34;96469.66;4935469;28;19911;-56
2022/10/28 11:01:06;;;;;;;;;;;33.10;45.20;;;25.16;45.64;96474.38;4919462;29;19911;-56
2022/10/28 11:03:58;;;;;;;;;;;32.90;45.20;;;25.18;43.54;96474.06;4935015;28;19911;-55
2022/10/28 11:06:39;;;;;;;;;;;32.90;45.00;;;25.01;45.10;96464.06;4927014;29;19922;-56
2022/10/28 11:09:30;;;;;;;;;;;33.10;44.60;;;25.11;42.41;96458.22;4955071;28;19918;-58
2022/10/28 11:11:56;;;;;;;;;;;33.30;44.40;;;25.28;42.06;96466.22;4955839;28;19997;-55
2022/10/28 11:14:31;;;;;;;;;;;33.50;44.20;;;25.35;41.83;96462.94;4956336;28;20016;-54
2022/10/28 11:17:02;;;;;;;;;;;33.70;44.00;;;25.58;44.15;96452.41;4964889;28;19910;-56
2022/10/28 11:19:34;;;;;;;;;;;33.90;43.60;;;25.88;41.89;96446.75;4971153;28;19914;-50
2022/10/28 11:22:24;;;;;;;;;;;34.20;43.40;;;25.95;42.60;96434.13;4964414;28;20291;-57
2022/10/28 11:25:21;;;;;;;;;;;34.40;43.20;;;26.19;40.20;96425.06;4968768;28;19917;-54
2022/10/28 11:28:32;;;;;;;;;;;34.70;42.90;;;26.46;40.74;96426.25;4967393;28;20427;-55
2022/10/28 11:31:28;;;;;;;;;;;34.90;42.40;;;26.51;42.14;96419.78;4969286;28;19921;-58
2022/10/28 11:34:46;;;;;;;;;;;35.00;42.10;;;26.28;42.12;96419.50;4962087;28;19952;-58
2022/10/28 11:37:45;;;;;;;;;;;34.60;42.20;;;25.99;40.54;96415.13;4957628;28;19918;-55
2022/10/28 11:40:51;;;;;;;;;;;34.00;42.00;;;25.88;42.56;96414.78;4961949;28;20328;-58
2022/10/28 11:43:43;;;;;;;;;;;33.40;42.00;;;25.60;43.01;96407.28;4956704;28;19968;-55
2022/10/28 11:46:18;;;;;;;;;;;33.00;42.10;;;25.48;43.88;96409.19;4959716;28;19999;-57
2022/10/28 11:49:25;;;;;;;;;;;32.70;42.30;;;25.34;44.42;96407.63;4960240;28;19910;-58
2022/10/28 11:52:22;;;;;;;;;;;32.40;42.30;;;25.18;46.44;96403.97;4965404;28;19918;-56
2022/10/28 11:55:15;;;;;;;;;;;32.10;42.30;;;24.81;47.60;96394.88;4926788;28;19914;-55
2022/10/28 11:57:55;;;;;;;;;;;31.70;42.30;;;24.34;49.16;96400.59;4968606;28;19985;-58